createdAt,value
2019-04-30T00:02:34.626Z,8.13
2019-04-30T00:05:00.697Z,7.83
2019-04-30T00:07:31.515Z,8.07
2019-04-30T00:10:02.071Z,7.73
2019-04-30T00:12:35.954Z,7.30
2019-04-30T00:15:06.242Z,7.93
2019-04-30T00:17:36.868Z,7.40
2019-04-30T00:20:07.506Z,7.53
2019-04-30T00:22:46.469Z,7.53
2019-04-30T00:25:11.224Z,7.57
2019-04-30T00:27:41.815Z,8.07
2019-04-30T00:30:12.344Z,8.07
2019-04-30T00:32:43.685Z,8.13
2019-04-30T00:35:16.283Z,8.63
2019-04-30T00:37:51.699Z,8.53
2019-04-30T00:40:21.728Z,7.40
2019-04-30T00:42:51.719Z,8.47
2019-04-30T00:45:22.100Z,8.53
2019-04-30T00:47:52.693Z,7.93
2019-04-30T00:50:24.784Z,7.73
2019-04-30T00:52:55.553Z,8.13
2019-04-30T00:55:27.551Z,8.33
2019-04-30T00:57:57.974Z,8.47
2019-04-30T01:00:29.692Z,8.93
2019-04-30T01:03:19.766Z,8.27
2019-04-30T01:05:50.219Z,8.30
2019-04-30T01:08:21.168Z,8.60
2019-04-30T01:10:52.782Z,8.97
2019-04-30T01:13:24.177Z,8.30
2019-04-30T01:15:54.564Z,8.50
2019-04-30T01:18:28.615Z,9.13
2019-04-30T01:20:58.684Z,8.30
2019-04-30T01:23:29.671Z,8.87
2019-04-30T01:26:01.503Z,9.27
2019-04-30T01:28:32.127Z,8.40
2019-04-30T01:31:02.579Z,8.43
2019-04-30T01:33:34.528Z,8.93
2019-04-30T01:36:09.588Z,8.63
2019-04-30T01:38:40.035Z,8.70
2019-04-30T01:41:10.258Z,8.43
2019-04-30T01:43:40.677Z,8.27
2019-04-30T01:46:13.827Z,8.83
2019-04-30T01:48:43.705Z,8.17
2019-04-30T01:51:18.393Z,8.77
2019-04-30T01:53:48.519Z,8.87
2019-04-30T01:56:20.559Z,8.13
2019-04-30T01:58:52.627Z,8.00
2019-04-30T02:01:24.651Z,8.43
2019-04-30T02:03:55.069Z,8.70
2019-04-30T02:06:25.525Z,8.50
2019-04-30T02:08:55.948Z,9.03
2019-04-30T02:11:26.332Z,8.13
2019-04-30T02:13:56.746Z,8.83
2019-04-30T02:16:29.018Z,8.10
2019-04-30T02:19:00.478Z,8.57
2019-04-30T02:21:33.234Z,8.47
2019-04-30T02:24:02.977Z,8.23
2019-04-30T02:26:33.360Z,8.33
2019-04-30T02:29:03.790Z,8.97
2019-04-30T02:31:35.144Z,8.90
2019-04-30T02:34:10.012Z,8.03
2019-04-30T02:36:52.845Z,8.33
2019-04-30T02:39:23.334Z,8.77
2019-04-30T02:41:54.455Z,7.90
2019-04-30T02:44:25.587Z,8.03
2019-04-30T02:47:00.449Z,9.43
2019-04-30T02:49:32.768Z,8.77
2019-04-30T02:52:04.776Z,9.47
2019-04-30T02:54:36.540Z,9.40
2019-04-30T02:57:11.282Z,9.47
2019-04-30T02:59:59.949Z,8.80
2019-04-30T03:02:31.630Z,8.97
2019-04-30T03:05:02.366Z,9.83
2019-04-30T03:07:32.787Z,8.97
2019-04-30T03:10:03.512Z,9.27
2019-04-30T03:12:34.239Z,9.07
2019-04-30T03:15:06.337Z,10.20
2019-04-30T03:17:50.361Z,9.30
2019-04-30T03:20:35.675Z,9.30
2019-04-30T03:23:02.452Z,9.13
2019-04-30T03:25:33.095Z,8.57
2019-04-30T03:28:03.509Z,9.10
2019-04-30T03:30:33.903Z,9.47
2019-04-30T03:33:04.403Z,8.63
2019-04-30T03:35:34.815Z,9.20
2019-04-30T03:38:05.287Z,10.80
2019-04-30T03:40:35.672Z,9.97
2019-04-30T03:43:06.095Z,10.50
2019-04-30T03:45:36.474Z,9.73
2019-04-30T03:48:09.943Z,10.33
2019-04-30T03:50:50.371Z,10.47
2019-04-30T03:53:11.103Z,10.47
2019-04-30T03:55:41.482Z,10.80
2019-04-30T03:58:11.908Z,9.90
2019-04-30T04:01:00.464Z,11.87
2019-04-30T04:03:33.587Z,10.53
2019-04-30T04:06:21.564Z,11.07
2019-04-30T04:08:56.427Z,9.97
2019-04-30T04:11:29.814Z,10.40
2019-04-30T04:14:00.550Z,10.97
2019-04-30T04:16:32.273Z,12.23
2019-04-30T04:19:03.147Z,11.80
2019-04-30T04:21:33.551Z,16.30
2019-04-30T04:24:04.361Z,12.90
2019-04-30T04:26:34.762Z,12.37
2019-04-30T04:29:05.587Z,11.90
2019-04-30T04:31:35.969Z,13.10
2019-04-30T04:34:09.156Z,16.30
2019-04-30T04:36:39.939Z,13.50
2019-04-30T04:39:10.762Z,12.07
2019-04-30T04:41:44.077Z,11.57
2019-04-30T04:44:13.350Z,10.70
2019-04-30T04:46:43.740Z,9.20
2019-04-30T04:49:14.162Z,10.00
2019-04-30T04:51:44.552Z,9.00
2019-04-30T04:54:14.990Z,9.03
2019-04-30T04:56:45.375Z,8.67
2019-04-30T04:59:15.870Z,9.00
2019-04-30T05:01:46.261Z,9.50
2019-04-30T05:04:16.682Z,9.67
2019-04-30T05:06:49.330Z,9.53
2019-04-30T05:09:19.534Z,8.70
2019-04-30T05:11:49.970Z,9.33
2019-04-30T05:14:20.467Z,8.53
2019-04-30T05:16:50.850Z,8.53
2019-04-30T05:19:21.277Z,8.90
2019-04-30T05:21:51.805Z,7.93
2019-04-30T05:24:22.265Z,8.23
2019-04-30T05:26:52.738Z,8.97
2019-04-30T05:29:23.156Z,8.83
2019-04-30T05:31:53.624Z,8.40
2019-04-30T05:34:24.061Z,7.70
2019-04-30T05:36:54.447Z,8.23
2019-04-30T05:39:24.880Z,7.60
2019-04-30T05:41:55.265Z,8.47
2019-04-30T05:44:25.695Z,7.50
2019-04-30T05:46:56.088Z,7.90
2019-04-30T05:49:26.537Z,7.70
2019-04-30T05:51:56.936Z,8.00
2019-04-30T05:54:29.141Z,9.07
2019-04-30T05:56:59.519Z,7.30
2019-04-30T05:59:30.020Z,6.70
2019-04-30T06:02:00.448Z,6.70
2019-04-30T06:04:30.908Z,6.90
2019-04-30T06:07:01.340Z,7.53
2019-04-30T06:09:42.229Z,7.33
2019-04-30T06:12:18.757Z,6.57
2019-04-30T06:14:59.544Z,7.37
2019-04-30T06:17:33.695Z,7.40
2019-04-30T06:20:16.142Z,7.10
2019-04-30T06:22:38.655Z,6.80
2019-04-30T06:25:10.869Z,7.13
2019-04-30T06:27:41.648Z,8.20
2019-04-30T06:30:12.449Z,7.60
2019-04-30T06:32:43.226Z,7.47
2019-04-30T06:35:13.856Z,7.03
2019-04-30T06:37:44.294Z,7.40
2019-04-30T06:40:15.992Z,6.70
2019-04-30T06:42:46.487Z,7.00
2019-04-30T06:45:18.989Z,6.63
2019-04-30T06:47:49.698Z,7.37
2019-04-30T06:50:20.227Z,6.63
2019-04-30T06:52:56.809Z,6.57
2019-04-30T06:55:24.300Z,7.03
2019-04-30T06:57:56.409Z,5.77
2019-04-30T07:00:40.419Z,6.40
2019-04-30T07:03:11.165Z,7.20
2019-04-30T07:05:41.569Z,6.17
2019-04-30T07:08:37.361Z,6.83
2019-04-30T07:11:21.952Z,6.97
2019-04-30T07:13:52.595Z,6.37
2019-04-30T07:16:23.134Z,7.67
2019-04-30T07:18:53.571Z,6.10
2019-04-30T07:21:24.044Z,7.20
2019-04-30T07:23:54.553Z,7.53
2019-04-30T07:26:25.025Z,7.27
2019-04-30T07:28:55.668Z,7.10
2019-04-30T07:31:29.402Z,6.37
2019-04-30T07:33:59.885Z,6.70
2019-04-30T07:36:45.205Z,6.10
2019-04-30T07:39:02.736Z,6.40
2019-04-30T07:41:33.727Z,6.70
2019-04-30T07:44:04.328Z,6.90
2019-04-30T07:46:35.278Z,5.97
2019-04-30T07:49:06.884Z,6.63
2019-04-30T07:51:40.412Z,6.27
2019-04-30T07:54:09.468Z,7.00
2019-04-30T07:56:41.727Z,7.20
2019-04-30T07:59:11.989Z,6.22
2019-04-30T08:02:00.550Z,5.72
2019-04-30T08:04:25.786Z,6.12
2019-04-30T08:06:59.687Z,6.37
2019-04-30T08:09:39.130Z,5.67
2019-04-30T08:12:02.381Z,6.58
2019-04-30T08:14:32.953Z,6.50
2019-04-30T08:17:03.354Z,6.30
2019-04-30T08:19:33.808Z,6.45
2019-04-30T08:22:04.603Z,6.37
2019-04-30T08:24:35.353Z,5.97
2019-04-30T08:27:05.812Z,5.78
2019-04-30T08:29:36.262Z,5.53
2019-04-30T08:32:08.842Z,5.37
2019-04-30T08:34:39.387Z,5.65
2019-04-30T08:37:17.240Z,5.97
2019-04-30T08:39:42.044Z,6.47
2019-04-30T08:42:12.439Z,5.92
2019-04-30T08:44:42.869Z,5.78
2019-04-30T08:47:13.266Z,5.67
2019-04-30T08:49:43.939Z,6.33
2019-04-30T08:52:14.567Z,5.87
2019-04-30T08:54:44.994Z,5.10
2019-04-30T08:57:15.388Z,5.70
2019-04-30T08:59:45.823Z,5.00
2019-04-30T09:02:16.662Z,4.78
2019-04-30T09:04:49.299Z,5.47
2019-04-30T09:07:19.948Z,4.87
2019-04-30T09:09:50.413Z,5.45
2019-04-30T09:12:20.810Z,4.92
2019-04-30T09:14:51.251Z,5.10
2019-04-30T09:17:21.852Z,5.47
2019-04-30T09:19:52.390Z,5.62
2019-04-30T09:22:22.888Z,5.20
2019-04-30T09:24:53.320Z,4.72
2019-04-30T09:27:23.711Z,5.87
2019-04-30T09:29:54.224Z,5.50
2019-04-30T09:32:24.621Z,5.08
2019-04-30T09:34:55.062Z,4.72
2019-04-30T09:37:25.451Z,5.65
2019-04-30T09:39:55.887Z,5.33
2019-04-30T09:42:26.285Z,5.17
2019-04-30T09:44:59.082Z,5.10
2019-04-30T09:47:29.606Z,5.37
2019-04-30T09:50:03.113Z,5.30
2019-04-30T09:52:35.911Z,6.10
2019-04-30T09:55:06.880Z,5.15
2019-04-30T09:57:39.021Z,5.40
2019-04-30T10:00:11.057Z,5.83
2019-04-30T10:02:41.796Z,6.15
2019-04-30T10:05:13.302Z,5.37
2019-04-30T10:07:45.149Z,5.83
2019-04-30T10:10:18.966Z,5.78
2019-04-30T10:12:49.400Z,6.08
2019-04-30T10:15:28.944Z,6.15
2019-04-30T10:17:59.430Z,5.75
2019-04-30T10:20:44.441Z,6.62
2019-04-30T10:23:14.880Z,6.05
2019-04-30T10:25:45.268Z,6.10
2019-04-30T10:28:15.856Z,5.92
2019-04-30T10:30:46.256Z,5.60
2019-04-30T10:33:16.762Z,6.10
2019-04-30T10:35:47.234Z,6.55
2019-04-30T10:38:19.496Z,6.05
2019-04-30T10:40:50.047Z,7.08
2019-04-30T10:43:20.547Z,5.78
2019-04-30T10:45:51.154Z,6.28
2019-04-30T10:48:21.657Z,5.40
2019-04-30T10:50:52.443Z,4.33
2019-04-30T10:53:22.963Z,6.37
2019-04-30T10:55:53.506Z,5.65
2019-04-30T10:58:23.960Z,5.20
2019-04-30T11:00:54.502Z,4.50
2019-04-30T11:03:25.020Z,4.37
2019-04-30T11:05:55.487Z,5.35
2019-04-30T11:08:26.041Z,5.37
2019-04-30T11:10:56.536Z,5.08
2019-04-30T11:13:27.031Z,4.80
2019-04-30T11:16:02.611Z,4.80
2019-04-30T11:18:31.352Z,4.28
2019-04-30T11:21:02.321Z,5.00
2019-04-30T11:23:32.990Z,5.55
2019-04-30T11:26:04.070Z,4.30
2019-04-30T11:28:35.213Z,4.65
2019-04-30T11:31:26.545Z,4.47
2019-04-30T11:34:01.589Z,4.50
2019-04-30T11:36:32.222Z,4.87
2019-04-30T11:39:02.662Z,4.75
2019-04-30T11:41:34.820Z,4.80
2019-04-30T11:44:05.395Z,5.08
2019-04-30T11:46:59.892Z,5.00
2019-04-30T11:49:30.592Z,4.47
2019-04-30T11:52:00.988Z,5.55
2019-04-30T11:54:31.570Z,4.35
2019-04-30T11:57:02.144Z,4.43
2019-04-30T11:59:32.580Z,4.58
2019-04-30T12:02:04.603Z,4.75
2019-04-30T12:04:35.038Z,4.72
2019-04-30T12:07:10.271Z,4.00
2019-04-30T12:09:56.892Z,4.33
2019-04-30T12:12:28.925Z,4.03
2019-04-30T12:15:02.557Z,4.12
2019-04-30T12:17:31.585Z,4.37
2019-04-30T12:20:02.101Z,5.25
2019-04-30T12:22:32.484Z,4.28
2019-04-30T12:25:05.511Z,4.60
2019-04-30T12:27:36.142Z,4.87
2019-04-30T12:30:09.897Z,4.60
2019-04-30T12:32:40.427Z,4.12
2019-04-30T12:35:12.445Z,4.03
2019-04-30T12:37:42.833Z,4.03
2019-04-30T12:40:25.817Z,4.05
2019-04-30T12:42:45.734Z,3.90
2019-04-30T12:45:16.399Z,4.05
2019-04-30T12:47:51.257Z,4.50
2019-04-30T12:50:23.473Z,4.03
2019-04-30T12:53:01.089Z,3.75
2019-04-30T12:55:41.620Z,3.95
2019-04-30T12:58:12.009Z,3.92
2019-04-30T13:00:42.516Z,4.03
2019-04-30T13:03:12.910Z,4.12
2019-04-30T13:05:43.639Z,4.03
2019-04-30T13:08:14.652Z,4.12
2019-04-30T13:10:46.147Z,3.92
2019-04-30T13:13:17.396Z,3.90
2019-04-30T13:15:48.324Z,3.67
2019-04-30T13:18:19.492Z,4.22
2019-04-30T13:20:50.164Z,4.55
2019-04-30T13:23:20.604Z,3.60
2019-04-30T13:25:51.784Z,3.87
2019-04-30T13:28:23.944Z,4.37
2019-04-30T13:30:54.374Z,4.17
2019-04-30T13:33:29.373Z,4.63
2019-04-30T13:35:59.813Z,4.20
2019-04-30T13:38:47.447Z,4.58
2019-04-30T13:41:12.845Z,4.20
2019-04-30T13:43:58.630Z,5.50
2019-04-30T13:46:28.851Z,3.90
2019-04-30T13:48:59.314Z,3.67
2019-04-30T13:51:29.708Z,4.43
2019-04-30T13:54:00.455Z,5.10
2019-04-30T13:56:31.219Z,5.17
2019-04-30T13:59:02.639Z,13.93
2019-04-30T14:01:34.069Z,4.50
2019-04-30T14:04:17.830Z,6.13
2019-04-30T14:06:49.931Z,4.37
2019-04-30T14:09:24.796Z,5.20
2019-04-30T14:11:55.263Z,5.07
2019-04-30T14:14:25.699Z,4.73
2019-04-30T14:16:56.242Z,4.10
2019-04-30T14:19:26.740Z,4.33
2019-04-30T14:21:58.894Z,4.17
2019-04-30T14:24:29.458Z,4.22
2019-04-30T14:26:59.847Z,4.87
2019-04-30T14:29:30.358Z,7.37
2019-04-30T14:32:00.749Z,6.60
2019-04-30T14:34:31.260Z,4.00
2019-04-30T14:37:02.056Z,4.10
2019-04-30T14:39:32.638Z,4.50
2019-04-30T14:42:03.855Z,5.43
2019-04-30T14:44:36.976Z,3.80
2019-04-30T14:47:16.004Z,4.23
2019-04-30T14:50:02.715Z,4.13
2019-04-30T14:52:31.285Z,4.10
2019-04-30T14:55:09.087Z,4.23
2019-04-30T14:57:46.832Z,4.33
2019-04-30T15:00:24.463Z,4.07
2019-04-30T15:02:59.290Z,4.73
2019-04-30T15:05:39.154Z,6.23
2019-04-30T15:08:01.968Z,7.37
2019-04-30T15:10:32.477Z,4.20
2019-04-30T15:13:02.916Z,5.57
2019-04-30T15:15:33.484Z,3.80
2019-04-30T15:18:04.014Z,4.80
2019-04-30T15:20:34.482Z,3.83
2019-04-30T15:23:08.689Z,3.50
2019-04-30T15:25:38.888Z,3.90
2019-04-30T15:28:09.892Z,3.90
2019-04-30T15:30:42.024Z,4.37
2019-04-30T15:33:14.361Z,4.17
2019-04-30T15:35:44.755Z,4.63
2019-04-30T15:38:15.204Z,4.10
2019-04-30T15:40:45.600Z,3.37
2019-04-30T15:43:16.111Z,3.90
2019-04-30T15:45:49.385Z,3.80
2019-04-30T15:48:19.876Z,3.47
2019-04-30T15:50:50.355Z,3.70
2019-04-30T15:53:20.857Z,4.23
2019-04-30T15:55:51.254Z,4.13
2019-04-30T15:58:24.287Z,3.70
2019-04-30T16:00:54.675Z,3.60
2019-04-30T16:03:29.588Z,4.90
2019-04-30T16:06:00.119Z,4.93
2019-04-30T16:08:32.731Z,5.53
2019-04-30T16:11:07.384Z,3.60
2019-04-30T16:13:39.461Z,6.57
2019-04-30T16:16:13.132Z,4.83
2019-04-30T16:18:50.641Z,4.30
2019-04-30T16:21:21.086Z,6.57
2019-04-30T16:23:51.731Z,3.90
2019-04-30T16:26:22.172Z,3.60
2019-04-30T16:28:52.612Z,4.03
2019-04-30T16:31:23.046Z,4.30
2019-04-30T16:33:53.443Z,4.43
2019-04-30T16:36:24.038Z,3.97
2019-04-30T16:38:54.638Z,4.40
2019-04-30T16:41:31.453Z,3.90
2019-04-30T16:43:59.286Z,4.07
2019-04-30T16:46:31.111Z,3.83
2019-04-30T16:49:02.098Z,3.93
2019-04-30T16:51:32.546Z,4.07
2019-04-30T16:54:02.935Z,4.30
2019-04-30T16:56:33.954Z,4.43
2019-04-30T16:59:06.142Z,3.90
2019-04-30T17:01:36.838Z,4.10
2019-04-30T17:04:24.176Z,4.20
2019-04-30T17:07:01.995Z,4.47
2019-04-30T17:09:37.074Z,4.40
2019-04-30T17:12:09.219Z,4.33
2019-04-30T17:14:41.250Z,4.33
2019-04-30T17:17:11.926Z,4.17
2019-04-30T17:19:42.640Z,4.63
2019-04-30T17:22:13.639Z,4.87
2019-04-30T17:24:44.029Z,4.43
2019-04-30T17:27:19.510Z,4.60
2019-04-30T17:29:48.192Z,5.10
2019-04-30T17:32:18.718Z,5.37
2019-04-30T17:34:49.285Z,6.33
2019-04-30T17:37:19.838Z,7.47
2019-04-30T17:39:52.870Z,10.20
2019-04-30T17:42:22.498Z,8.50
2019-04-30T17:44:58.476Z,7.50
2019-04-30T17:47:25.034Z,8.00
2019-04-30T17:49:55.431Z,6.13
2019-04-30T17:52:29.670Z,6.53
2019-04-30T17:54:59.696Z,5.87
2019-04-30T17:57:34.424Z,7.23
2019-04-30T18:00:15.601Z,7.47
2019-04-30T18:02:35.769Z,6.57
2019-04-30T18:05:09.139Z,6.23
2019-04-30T18:07:40.406Z,6.30
2019-04-30T18:10:13.361Z,5.40
2019-04-30T18:12:44.078Z,5.77
2019-04-30T18:15:17.073Z,5.57
2019-04-30T18:17:49.294Z,6.60
2019-04-30T18:20:21.421Z,5.90
2019-04-30T18:23:00.531Z,6.80
2019-04-30T18:25:47.834Z,5.90
2019-04-30T18:28:19.244Z,5.80
2019-04-30T18:30:49.816Z,5.97
2019-04-30T18:33:20.297Z,5.97
2019-04-30T18:35:50.841Z,5.37
2019-04-30T18:38:21.458Z,6.43
2019-04-30T18:40:53.309Z,6.37
2019-04-30T18:43:23.775Z,6.77
2019-04-30T18:45:54.443Z,7.00
2019-04-30T18:48:24.997Z,7.70
2019-04-30T18:50:55.424Z,11.10
2019-04-30T18:53:28.593Z,9.13
2019-04-30T18:55:59.288Z,11.10
2019-04-30T18:58:39.602Z,16.97
2019-04-30T19:01:02.254Z,18.63
2019-04-30T19:03:32.846Z,22.73
2019-04-30T19:06:05.894Z,24.40
2019-04-30T19:08:43.768Z,36.73
2019-04-30T19:11:31.701Z,34.17
2019-04-30T19:14:03.830Z,31.50
2019-04-30T19:16:53.545Z,24.13
2019-04-30T19:19:37.513Z,22.30
2019-04-30T19:22:09.137Z,19.43
2019-04-30T19:24:52.208Z,16.70
2019-04-30T19:27:12.126Z,16.83
2019-04-30T19:29:46.771Z,15.13
2019-04-30T19:32:17.406Z,14.27
2019-04-30T19:34:48.970Z,12.90
2019-04-30T19:37:19.777Z,12.53
2019-04-30T19:39:51.094Z,12.70
2019-04-30T19:42:21.782Z,12.97
2019-04-30T19:45:00.665Z,12.97
2019-04-30T19:47:24.607Z,12.43
2019-04-30T19:49:55.105Z,12.67
2019-04-30T19:52:25.752Z,12.37
2019-04-30T19:54:56.397Z,13.63
2019-04-30T19:57:28.606Z,14.00
2019-04-30T19:59:59.133Z,12.60
2019-04-30T20:02:29.896Z,12.17
2019-04-30T20:05:02.631Z,11.87
2019-04-30T20:07:33.432Z,11.37
2019-04-30T20:10:05.858Z,12.00
2019-04-30T20:12:36.413Z,12.27
2019-04-30T20:15:17.190Z,11.83
2019-04-30T20:17:42.178Z,9.67
2019-04-30T20:20:12.807Z,9.70
2019-04-30T20:22:43.313Z,9.07
2019-04-30T20:25:14.858Z,8.60
2019-04-30T20:27:45.323Z,8.73
2019-04-30T20:30:15.917Z,7.73
2019-04-30T20:32:46.368Z,7.47
2019-04-30T20:35:16.893Z,7.77
2019-04-30T20:38:05.188Z,7.80
2019-04-30T20:40:43.252Z,8.07
2019-04-30T20:43:09.244Z,7.67
2019-04-30T20:45:39.827Z,7.40
2019-04-30T20:48:10.267Z,7.37
2019-04-30T20:50:41.656Z,6.73
2019-04-30T20:53:12.562Z,6.93
2019-04-30T20:55:47.098Z,6.70
2019-04-30T20:58:19.727Z,7.70
2019-04-30T21:01:01.135Z,7.37
2019-04-30T21:03:25.311Z,7.17
2019-04-30T21:05:55.689Z,7.00
2019-04-30T21:08:26.181Z,7.13
2019-04-30T21:10:56.630Z,7.40
2019-04-30T21:13:29.322Z,8.60
2019-04-30T21:16:01.889Z,8.27
2019-04-30T21:18:40.388Z,9.73
2019-04-30T21:21:24.437Z,9.50
2019-04-30T21:23:54.872Z,8.43
2019-04-30T21:26:25.255Z,9.17
2019-04-30T21:29:10.408Z,8.87
2019-04-30T21:31:47.919Z,9.13
2019-04-30T21:34:29.402Z,9.93
2019-04-30T21:37:00.174Z,8.80
2019-04-30T21:39:32.231Z,8.90
2019-04-30T21:42:03.289Z,8.23
2019-04-30T21:44:33.911Z,8.97
2019-04-30T21:47:04.295Z,9.77
2019-04-30T21:49:35.014Z,11.10
2019-04-30T21:52:05.830Z,13.00
2019-04-30T21:54:38.757Z,14.33
2019-04-30T21:57:09.237Z,15.23
2019-04-30T21:59:39.657Z,15.70
2019-04-30T22:02:10.313Z,15.03
2019-04-30T22:04:40.738Z,14.73
2019-04-30T22:07:11.596Z,15.30
2019-04-30T22:09:43.371Z,15.57
2019-04-30T22:12:13.789Z,15.03
2019-04-30T22:14:44.215Z,13.97
2019-04-30T22:17:14.665Z,13.33
2019-04-30T22:19:45.141Z,12.80
2019-04-30T22:22:15.571Z,13.40
2019-04-30T22:24:46.019Z,14.47
2019-04-30T22:27:17.509Z,13.20
2019-04-30T22:29:48.973Z,14.63
2019-04-30T22:32:19.362Z,14.97
2019-04-30T22:34:49.793Z,16.27
2019-04-30T22:37:20.182Z,16.67
2019-04-30T22:39:54.943Z,17.33
2019-04-30T22:42:35.107Z,15.00
2019-04-30T22:45:08.703Z,16.97
2019-04-30T22:47:39.156Z,17.33
2019-04-30T22:50:10.216Z,19.70
2019-04-30T22:52:40.643Z,18.43
2019-04-30T22:55:11.357Z,18.83
2019-04-30T22:57:41.784Z,14.57
2019-04-30T23:00:14.752Z,16.10
2019-04-30T23:02:48.438Z,15.23
2019-04-30T23:05:18.958Z,8.90
2019-04-30T23:07:49.387Z,13.23
2019-04-30T23:10:19.843Z,12.43
2019-04-30T23:12:50.269Z,12.80
2019-04-30T23:15:21.375Z,10.00
2019-04-30T23:17:51.790Z,11.00
2019-04-30T23:20:22.170Z,9.17
2019-04-30T23:22:52.614Z,10.30
2019-04-30T23:25:23.033Z,9.60
2019-04-30T23:27:53.446Z,7.63
2019-04-30T23:30:23.833Z,7.90
2019-04-30T23:32:54.325Z,7.40
2019-04-30T23:35:24.711Z,7.03
2019-04-30T23:37:55.133Z,7.07
2019-04-30T23:40:50.534Z,6.73
2019-04-30T23:43:21.420Z,7.40
2019-04-30T23:45:53.487Z,6.93
2019-04-30T23:48:23.919Z,6.90
2019-04-30T23:50:54.304Z,6.37
2019-04-30T23:53:24.736Z,6.47
2019-04-30T23:55:55.192Z,6.17
2019-04-30T23:58:25.686Z,6.23
